Time;durP1;ratioP1;P1;durP2;ratioP2;P2;SDS_P1;SDS_P2;PMS_P1;PMS_P2;Temp;Humidity;BMP_temperature;BMP_pressure;BME280_temperature;BME280_humidity;BME280_pressure;Samples;Min_cycle;Max_cycle;Signal;HPM_P1;HPM_P2
2022/09/17 00:01:29;;;;;;;1999.90;999.90;;;12.60;99.90;;;;;;5036200;28;20022;-74
2022/09/17 00:03:59;;;;;;;1999.90;999.90;;;12.60;99.90;;;;;;5037064;28;20037;-81
2022/09/17 00:06:25;;;;;;;1999.90;999.90;;;12.60;99.90;;;;;;5036819;28;20057;-74
2022/09/17 00:08:52;;;;;;;1999.90;999.90;;;12.50;99.90;;;;;;5069332;28;20400;-80
2022/09/17 00:11:24;;;;;;;1999.90;999.90;;;12.50;99.90;;;;;;5068814;28;20044;-80
2022/09/17 00:13:51;;;;;;;1999.90;999.90;;;12.40;99.90;;;;;;5034681;28;20029;-74
2022/09/17 00:16:35;;;;;;;1999.90;999.90;;;12.40;99.90;;;;;;5043978;28;20501;-81
2022/09/17 00:19:03;;;;;;;1999.90;999.90;;;12.40;99.90;;;;;;5056420;28;20036;-80
2022/09/17 00:21:29;;;;;;;1999.90;999.90;;;12.40;99.90;;;;;;5057584;28;20065;-74
2022/09/17 00:23:57;;;;;;;1999.90;999.90;;;12.30;99.90;;;;;;5054666;28;20021;-74
2022/09/17 00:26:23;;;;;;;1999.90;999.90;;;12.30;99.90;;;;;;5054388;28;20025;-74
2022/09/17 00:28:51;;;;;;;1999.90;999.90;;;12.20;99.90;;;;;;5056676;28;20049;-81
2022/09/17 00:31:17;;;;;;;1999.90;999.90;;;12.20;99.90;;;;;;5056756;28;20025;-80
2022/09/17 00:33:43;;;;;;;1999.90;999.90;;;12.10;99.90;;;;;;5057346;28;20025;-81
2022/09/17 00:36:08;;;;;;;1999.90;999.90;;;12.10;99.90;;;;;;5055360;28;20029;-79
2022/09/17 00:38:34;;;;;;;1999.90;999.90;;;12.10;99.90;;;;;;5055426;28;20435;-74
2022/09/17 00:41:01;;;;;;;1999.90;999.90;;;12.00;99.90;;;;;;5054408;28;20049;-79
2022/09/17 00:43:38;;;;;;;1999.90;999.90;;;12.00;99.90;;;;;;5056232;28;20056;-80
2022/09/17 00:46:15;;;;;;;1999.90;999.90;;;11.90;99.90;;;;;;5056694;28;20036;-81
2022/09/17 00:48:41;;;;;;;1999.90;999.90;;;11.90;99.90;;;;;;5055915;28;20025;-74
2022/09/17 00:51:09;;;;;;;1999.90;999.90;;;11.80;99.90;;;;;;5055249;28;20025;-74
2022/09/17 00:53:35;;;;;;;1999.90;999.90;;;11.80;99.90;;;;;;5055032;28;20531;-80
2022/09/17 00:56:08;;;;;;;1999.90;999.90;;;11.80;99.90;;;;;;5052567;28;21852;-74
2022/09/17 00:58:35;;;;;;;1999.90;999.90;;;11.80;99.90;;;;;;5035401;28;20491;-80
2022/09/17 01:01:01;;;;;;;1999.90;999.90;;;11.70;99.90;;;;;;5036144;28;20037;-75
2022/09/17 01:03:27;;;;;;;1999.90;999.90;;;11.70;99.90;;;;;;5033386;28;20038;-74
2022/09/17 01:06:19;;;;;;;1999.90;999.90;;;11.70;99.90;;;;;;5034479;28;20075;-75
2022/09/17 01:09:16;;;;;;;1999.90;999.90;;;11.60;99.90;;;;;;5035693;28;20056;-80
2022/09/17 01:12:13;;;;;;;1999.90;999.90;;;11.70;99.90;;;;;;5035289;28;20034;-81
2022/09/17 01:14:51;;;;;;;1999.90;999.90;;;11.60;99.90;;;;;;5035214;28;20551;-81
2022/09/17 01:17:28;;;;;;;1999.90;999.90;;;11.50;99.90;;;;;;5050074;28;20504;-78
2022/09/17 01:20:03;;;;;;;1999.90;999.90;;;11.60;99.90;;;;;;5055060;28;20056;-81
2022/09/17 01:22:53;;;;;;;1999.90;999.90;;;11.50;99.90;;;;;;5055058;28;20029;-80
2022/09/17 01:25:27;;;;;;;1999.90;999.90;;;11.50;99.90;;;;;;5056000;28;20070;-81
2022/09/17 01:28:32;;;;;;;1999.90;999.90;;;11.50;99.90;;;;;;5055259;28;20044;-80
2022/09/17 01:31:01;;;;;;;1999.90;999.90;;;11.40;99.90;;;;;;5052945;28;20041;-81
2022/09/17 01:33:47;;;;;;;1999.90;999.90;;;11.40;99.90;;;;;;5054799;28;20078;-80
2022/09/17 01:36:29;;;;;;;1999.90;999.90;;;11.40;99.90;;;;;;5054577;28;20021;-80
2022/09/17 01:39:29;;;;;;;1999.90;999.90;;;11.40;99.90;;;;;;5054853;28;20446;-81
2022/09/17 01:42:07;;;;;;;1999.90;999.90;;;11.30;99.90;;;;;;5054806;28;20029;-74
2022/09/17 01:44:55;;;;;;;1999.90;999.90;;;11.30;99.90;;;;;;5053475;28;20019;-74
2022/09/17 01:47:48;;;;;;;1999.90;999.90;;;11.30;99.90;;;;;;5053973;28;20504;-80
2022/09/17 01:50:19;;;;;;;1999.90;999.90;;;11.30;99.90;;;;;;5053861;28;20109;-74
2022/09/17 01:52:48;;;;;;;1999.90;999.90;;;11.30;99.90;;;;;;5054138;28;20044;-74
2022/09/17 01:55:16;;;;;;;1999.90;999.90;;;11.20;99.90;;;;;;5052416;28;20043;-74
2022/09/17 01:58:21;;;;;;;1999.90;999.90;;;11.20;99.90;;;;;;5036785;28;20083;-81
2022/09/17 02:00:52;;;;;;;1999.90;999.90;;;11.20;99.90;;;;;;5042558;28;20036;-80
2022/09/17 02:03:29;;;;;;;1999.90;999.90;;;11.10;99.90;;;;;;5034438;28;20508;-81
2022/09/17 02:06:11;;;;;;;1999.90;999.90;;;11.10;99.90;;;;;;5034689;28;20036;-74
2022/09/17 02:08:45;;;;;;;1999.90;999.90;;;11.10;99.90;;;;;;5033240;28;20037;-74
2022/09/17 02:11:16;;;;;;;1999.90;999.90;;;11.00;99.90;;;;;;5032966;28;20375;-81
2022/09/17 02:13:53;;;;;;;1999.90;999.90;;;11.00;99.90;;;;;;5034525;28;20029;-81
2022/09/17 02:16:42;;;;;;;1999.90;999.90;;;11.00;99.90;;;;;;5042534;28;20520;-74
2022/09/17 02:19:10;;;;;;;1999.90;999.90;;;11.00;99.90;;;;;;5053291;28;20182;-74
2022/09/17 02:21:48;;;;;;;1999.90;999.90;;;11.00;99.90;;;;;;5052685;28;20021;-74
2022/09/17 02:24:40;;;;;;;1999.90;999.90;;;11.10;99.90;;;;;;5053519;28;20029;-74
2022/09/17 02:27:12;;;;;;;1999.90;999.90;;;11.10;99.90;;;;;;5052772;28;20482;-81
2022/09/17 02:29:43;;;;;;;1999.90;999.90;;;11.10;99.90;;;;;;5053722;28;20048;-80
2022/09/17 02:32:10;;;;;;;1999.90;999.90;;;11.10;99.90;;;;;;5052099;28;20029;-74
2022/09/17 02:34:36;;;;;;;1999.90;999.90;;;11.10;99.90;;;;;;5053109;28;20510;-81
2022/09/17 02:37:03;;;;;;;1999.90;999.90;;;11.10;99.90;;;;;;5053401;28;20033;-81
2022/09/17 02:39:29;;;;;;;1999.90;999.90;;;11.10;99.90;;;;;;5052797;28;20021;-81
2022/09/17 02:42:16;;;;;;;1999.90;999.90;;;11.10;99.90;;;;;;5054062;28;20017;-81
2022/09/17 02:44:56;;;;;;;1999.90;999.90;;;11.10;99.90;;;;;;5052873;28;20404;-74
2022/09/17 02:47:27;;;;;;;1999.90;999.90;;;11.00;99.90;;;;;;5052106;28;20025;-81
2022/09/17 02:49:53;;;;;;;1999.90;999.90;;;11.00;99.90;;;;;;5053024;28;20025;-81
2022/09/17 02:52:39;;;;;;;1999.90;999.90;;;10.90;99.90;;;;;;5051989;28;20032;-74
2022/09/17 02:55:30;;;;;;;1999.90;999.90;;;10.90;99.90;;;;;;5053337;28;20029;-80
2022/09/17 02:58:13;;;;;;;1999.90;999.90;;;10.90;99.90;;;;;;5034705;28;20502;-81
2022/09/17 03:00:39;;;;;;;1999.90;999.90;;;10.90;99.90;;;;;;5032784;28;20026;-74
2022/09/17 03:03:15;;;;;;;1999.90;999.90;;;10.90;99.90;;;;;;5032610;28;20029;-80
2022/09/17 03:05:41;;;;;;;1999.90;999.90;;;10.90;99.90;;;;;;5033115;28;20155;-81
2022/09/17 03:08:13;;;;;;;1999.90;999.90;;;10.90;99.90;;;;;;5033662;28;20396;-80
2022/09/17 03:10:40;;;;;;;1999.90;999.90;;;10.90;99.90;;;;;;5033026;28;20025;-80
2022/09/17 03:13:05;;;;;;;1999.90;999.90;;;10.80;99.90;;;;;;5064062;28;20033;-74
2022/09/17 03:15:31;;;;;;;1999.90;999.90;;;10.70;99.90;;;;;;5034453;28;20097;-74
2022/09/17 03:17:57;;;;;;;1999.90;999.90;;;10.70;99.90;;;;;;5053189;28;20031;-81
2022/09/17 03:20:23;;;;;;;1999.90;999.90;;;10.60;99.90;;;;;;5052056;28;20388;-80
2022/09/17 03:22:50;;;;;;;1999.90;999.90;;;10.60;99.90;;;;;;5052982;28;20041;-74
2022/09/17 03:25:16;;;;;;;1999.90;999.90;;;10.60;99.90;;;;;;5052560;28;20542;-75
2022/09/17 03:27:42;;;;;;;1999.90;999.90;;;10.50;99.90;;;;;;5054463;28;20045;-74
2022/09/17 03:30:08;;;;;;;1999.90;999.90;;;10.50;99.90;;;;;;5053647;28;20056;-80
2022/09/17 03:32:34;;;;;;;1999.90;999.90;;;10.50;99.90;;;;;;5056770;28;20029;-81
2022/09/17 03:35:00;;;;;;;1999.90;999.90;;;10.50;99.90;;;;;;5036289;28;20547;-80
2022/09/17 03:37:25;;;;;;;1999.90;999.90;;;10.50;99.90;;;;;;5036272;28;20025;-80
2022/09/17 03:39:51;;;;;;;1999.90;999.90;;;10.40;99.90;;;;;;5051781;28;20438;-74
2022/09/17 03:42:17;;;;;;;1999.90;999.90;;;10.40;99.90;;;;;;5056023;28;20412;-74
2022/09/17 03:44:42;;;;;;;1999.90;999.90;;;10.40;99.90;;;;;;5056522;28;20021;-81
2022/09/17 03:47:08;;;;;;;1999.90;999.90;;;10.30;99.90;;;;;;5055542;28;20240;-74
2022/09/17 03:49:34;;;;;;;1999.90;999.90;;;10.30;99.90;;;;;;5056138;28;20068;-81
2022/09/17 03:51:59;;;;;;;1999.90;999.90;;;10.30;99.90;;;;;;5054672;28;20078;-74
2022/09/17 03:54:25;;;;;;;1999.90;999.90;;;10.30;99.90;;;;;;5056382;28;20077;-80
2022/09/17 03:56:51;;;;;;;1999.90;999.90;;;10.30;99.90;;;;;;5055718;28;20025;-74
2022/09/17 03:59:16;;;;;;;1999.90;999.90;;;10.30;99.90;;;;;;5036657;28;20093;-80
2022/09/17 04:01:42;;;;;;;1999.90;999.90;;;10.20;99.90;;;;;;5035578;28;20167;-78
2022/09/17 04:04:08;;;;;;;1999.90;999.90;;;10.20;99.90;;;;;;5036458;28;20063;-74
2022/09/17 04:06:34;;;;;;;1999.90;999.90;;;10.20;99.90;;;;;;5035374;28;20112;-74
2022/09/17 04:08:59;;;;;;;1999.90;999.90;;;10.20;99.90;;;;;;5035747;28;20025;-81
2022/09/17 04:11:26;;;;;;;1999.90;999.90;;;10.20;99.90;;;;;;5035859;28;20033;-80
2022/09/17 04:13:51;;;;;;;1999.90;999.90;;;10.20;99.90;;;;;;5035834;28;20480;-74
2022/09/17 04:16:17;;;;;;;1999.90;999.90;;;10.20;99.90;;;;;;5052763;28;20075;-74
2022/09/17 04:18:43;;;;;;;1999.90;999.90;;;10.10;99.90;;;;;;5055340;28;20025;-74
2022/09/17 04:21:08;;;;;;;1999.90;999.90;;;10.10;99.90;;;;;;5054657;28;20033;-81
2022/09/17 04:23:34;;;;;;;1999.90;999.90;;;10.10;99.90;;;;;;5055204;28;20129;-81
2022/09/17 04:26:00;;;;;;;1999.90;999.90;;;10.10;99.90;;;;;;5053609;28;20018;-74
2022/09/17 04:28:25;;;;;;;1999.90;999.90;;;10.00;99.90;;;;;;5055308;28;20113;-74
2022/09/17 04:30:51;;;;;;;1999.90;999.90;;;10.00;99.90;;;;;;5053849;28;20052;-75
2022/09/17 04:33:17;;;;;;;1999.90;999.90;;;10.00;99.90;;;;;;5054830;28;20108;-77
2022/09/17 04:35:42;;;;;;;1999.90;999.90;;;9.90;99.90;;;;;;5055075;28;20025;-81
2022/09/17 04:38:08;;;;;;;1999.90;999.90;;;9.90;99.90;;;;;;5053894;28;20025;-74
2022/09/17 04:40:34;;;;;;;1999.90;999.90;;;10.00;99.90;;;;;;5055098;28;20021;-81
2022/09/17 04:43:01;;;;;;;1999.90;999.90;;;9.90;99.90;;;;;;5054955;28;20377;-74
2022/09/17 04:45:29;;;;;;;1999.90;999.90;;;9.90;99.90;;;;;;5054783;28;20575;-74
2022/09/17 04:47:55;;;;;;;1999.90;999.90;;;9.80;99.90;;;;;;5054755;28;20032;-81
2022/09/17 04:50:21;;;;;;;1999.90;999.90;;;9.80;99.90;;;;;;5055163;28;20021;-81
2022/09/17 04:52:47;;;;;;;1999.90;999.90;;;9.80;99.90;;;;;;5054637;28;20026;-81
2022/09/17 04:55:14;;;;;;;1999.90;999.90;;;9.70;99.90;;;;;;5055017;28;20485;-74
2022/09/17 04:57:46;;;;;;;1999.90;999.90;;;9.70;99.90;;;;;;5049580;28;20029;-81
2022/09/17 05:00:12;;;;;;;1999.90;999.90;;;9.70;99.90;;;;;;5034674;28;20022;-74
2022/09/17 05:02:38;;;;;;;1999.90;999.90;;;9.70;99.90;;;;;;5034650;28;20021;-81
2022/09/17 05:05:03;;;;;;;1999.90;999.90;;;9.70;99.90;;;;;;5034449;28;20036;-74
2022/09/17 05:07:29;;;;;;;1999.90;999.90;;;9.70;99.90;;;;;;5049789;28;20037;-81
2022/09/17 05:09:55;;;;;;;1999.90;999.90;;;9.70;99.90;;;;;;5034425;28;20036;-81
2022/09/17 05:12:20;;;;;;;1999.90;999.90;;;9.60;99.90;;;;;;5034325;28;20029;-74
2022/09/17 05:14:46;;;;;;;1999.90;999.90;;;9.60;99.90;;;;;;5034147;28;20080;-81
2022/09/17 05:17:11;;;;;;;1999.90;999.90;;;9.60;99.90;;;;;;5050098;28;20033;-74
2022/09/17 05:19:37;;;;;;;1999.90;999.90;;;9.60;99.90;;;;;;5054031;28;20078;-81
2022/09/17 05:22:03;;;;;;;1999.90;999.90;;;9.50;99.90;;;;;;5054509;28;20017;-74
2022/09/17 05:24:28;;;;;;;1999.90;999.90;;;9.50;99.90;;;;;;5054084;28;20029;-74
2022/09/17 05:26:54;;;;;;;1999.90;999.90;;;9.50;99.90;;;;;;5053856;28;20075;-74
2022/09/17 05:29:19;;;;;;;1999.90;999.90;;;9.50;99.90;;;;;;5052575;28;20090;-80
2022/09/17 05:31:45;;;;;;;1999.90;999.90;;;9.50;99.90;;;;;;5053962;28;20060;-81
2022/09/17 05:34:11;;;;;;;1999.90;999.90;;;9.60;99.90;;;;;;5052725;28;20446;-74
2022/09/17 05:36:37;;;;;;;1999.90;999.90;;;9.60;99.90;;;;;;5040038;28;20033;-74
2022/09/17 05:39:02;;;;;;;1999.90;999.90;;;9.50;99.90;;;;;;5043390;28;20373;-81
2022/09/17 05:41:28;;;;;;;1999.90;999.90;;;9.50;99.90;;;;;;5052754;28;20408;-74
2022/09/17 05:43:54;;;;;;;1999.90;999.90;;;9.50;99.90;;;;;;5053632;28;20498;-81
2022/09/17 05:46:19;;;;;;;1999.90;999.90;;;9.50;99.90;;;;;;5053927;28;20025;-80
2022/09/17 05:48:45;;;;;;;1999.90;999.90;;;9.40;99.90;;;;;;5053726;28;20578;-74
2022/09/17 05:51:11;;;;;;;1999.90;999.90;;;9.40;99.90;;;;;;5052909;28;20024;-74
2022/09/17 05:53:37;;;;;;;1999.90;999.90;;;9.40;99.90;;;;;;5053550;28;20025;-80
2022/09/17 05:56:02;;;;;;;1999.90;999.90;;;9.40;99.90;;;;;;5053681;28;20029;-74
2022/09/17 05:58:28;;;;;;;1999.90;999.90;;;9.40;99.90;;;;;;5039954;28;20112;-74
2022/09/17 06:00:54;;;;;;;1999.90;999.90;;;9.30;99.90;;;;;;5032941;28;20021;-74
2022/09/17 06:03:23;;;;;;;1999.90;999.90;;;9.30;99.90;;;;;;5033101;28;20025;-80
2022/09/17 06:05:57;;;;;;;1999.90;999.90;;;9.30;99.90;;;;;;5033269;28;20037;-74
2022/09/17 06:08:24;;;;;;;1999.90;999.90;;;9.40;99.90;;;;;;5033241;28;20030;-78
2022/09/17 06:10:49;;;;;;;1999.90;999.90;;;9.40;99.90;;;;;;5031746;28;20040;-81
2022/09/17 06:13:16;;;;;;;1999.90;999.90;;;9.40;99.90;;;;;;5032282;28;20030;-74
2022/09/17 06:15:42;;;;;;;1999.90;999.90;;;9.40;99.90;;;;;;5036663;28;20021;-74
2022/09/17 06:18:07;;;;;;;1999.90;999.90;;;9.50;99.90;;;;;;5053146;28;20025;-74
2022/09/17 06:20:33;;;;;;;1999.90;999.90;;;9.50;99.90;;;;;;5052666;28;20039;-80
2022/09/17 06:22:59;;;;;;;1999.90;999.90;;;9.60;99.90;;;;;;5052974;28;20033;-80
2022/09/17 06:25:25;;;;;;;1999.90;999.90;;;9.70;99.90;;;;;;5053364;28;20107;-80
2022/09/17 06:27:51;;;;;;;1999.90;999.90;;;9.70;99.90;;;;;;5052622;28;20082;-74
2022/09/17 06:30:17;;;;;;;1999.90;999.90;;;9.70;99.90;;;;;;5052815;28;20079;-80
2022/09/17 06:32:42;;;;;;;1999.90;999.90;;;9.90;99.90;;;;;;5052640;28;20028;-74
2022/09/17 06:35:09;;;;;;;1999.90;999.90;;;9.90;99.90;;;;;;5052610;28;20526;-74
2022/09/17 06:37:39;;;;;;;1999.90;999.90;;;10.00;99.90;;;;;;5052322;28;20025;-80
2022/09/17 06:40:06;;;;;;;1999.90;999.90;;;10.00;99.90;;;;;;5052789;28;20135;-80
2022/09/17 06:42:31;;;;;;;1999.90;999.90;;;10.10;99.90;;;;;;5052534;28;20375;-74
2022/09/17 06:44:57;;;;;;;1999.90;999.90;;;10.20;99.90;;;;;;5052399;28;20021;-74
2022/09/17 06:47:24;;;;;;;1999.90;999.90;;;10.30;99.90;;;;;;5051977;28;20037;-74
2022/09/17 06:49:50;;;;;;;1999.90;999.90;;;10.30;99.90;;;;;;5052381;28;20051;-74
2022/09/17 06:52:16;;;;;;;1999.90;999.90;;;10.40;99.90;;;;;;5052454;28;20117;-74
2022/09/17 06:54:41;;;;;;;1999.90;999.90;;;10.50;99.90;;;;;;5052261;28;20543;-74
2022/09/17 06:57:07;;;;;;;1999.90;999.90;;;10.60;99.90;;;;;;5051243;28;20033;-74
2022/09/17 06:59:32;;;;;;;1999.90;999.90;;;10.70;99.90;;;;;;5031907;28;20057;-74
2022/09/17 07:01:58;;;;;;;1999.90;999.90;;;10.80;99.90;;;;;;5031664;28;20067;-81
2022/09/17 07:04:24;;;;;;;1999.90;999.90;;;10.90;99.90;;;;;;5032558;28;20025;-74
2022/09/17 07:06:49;;;;;;;1999.90;999.90;;;11.00;99.90;;;;;;5032254;28;20061;-74
2022/09/17 07:09:15;;;;;;;1999.90;999.90;;;11.10;99.90;;;;;;5032485;28;20025;-74
2022/09/17 07:11:41;;;;;;;1999.90;999.90;;;11.30;99.90;;;;;;5031939;28;20064;-81
2022/09/17 07:14:06;;;;;;;1999.90;999.90;;;11.30;99.90;;;;;;5031892;28;20026;-80
2022/09/17 07:16:34;;;;;;;1999.90;999.90;;;11.40;99.90;;;;;;5042121;28;20029;-74
2022/09/17 07:19:02;;;;;;;1999.90;999.90;;;11.60;99.90;;;;;;5051832;28;20044;-74
2022/09/17 07:21:27;;;;;;;1999.90;999.90;;;11.70;99.90;;;;;;5051979;28;20027;-81
2022/09/17 07:23:53;;;;;;;1999.90;999.90;;;11.80;99.90;;;;;;5050845;28;20116;-81
2022/09/17 07:26:18;;;;;;;1999.90;999.90;;;11.90;99.90;;;;;;5050915;28;20094;-81
2022/09/17 07:28:44;;;;;;;1999.90;999.90;;;12.00;99.90;;;;;;5052127;28;20036;-81
2022/09/17 07:31:11;;;;;;;1999.90;999.90;;;12.10;99.90;;;;;;5051815;28;20036;-74
2022/09/17 07:33:37;;;;;;;1999.90;999.90;;;12.30;99.90;;;;;;5051911;28;20025;-80
2022/09/17 07:36:09;;;;;;;1999.90;999.90;;;12.40;99.90;;;;;;5051753;28;20025;-74
2022/09/17 07:38:35;;;;;;;1999.90;999.90;;;12.50;99.90;;;;;;5052167;28;20112;-81
2022/09/17 07:41:03;;;;;;;1999.90;999.90;;;12.70;99.90;;;;;;5051859;28;20036;-74
2022/09/17 07:43:31;;;;;;;1999.90;999.90;;;12.80;99.90;;;;;;5051568;28;20535;-81
2022/09/17 07:46:02;;;;;;;1999.90;999.90;;;13.10;99.90;;;;;;5051467;28;20100;-74
2022/09/17 07:48:29;;;;;;;1999.90;999.90;;;13.40;99.90;;;;;;5052003;28;20031;-74
2022/09/17 07:50:55;;;;;;;1999.90;999.90;;;14.10;99.90;;;;;;5051950;28;20028;-82
2022/09/17 07:53:21;;;;;;;1999.90;999.90;;;16.90;99.90;;;;;;5051875;28;20060;-75
2022/09/17 07:55:58;;;;;;;1999.90;999.90;;;19.80;98.70;;;;;;5052154;28;20025;-83
2022/09/17 07:58:29;;;;;;;1999.90;999.90;;;21.30;95.30;;;;;;5039073;28;20021;-75
2022/09/17 08:01:11;;;;;;;1999.90;999.90;;;22.40;94.00;;;;;;5031410;28;20018;-76
2022/09/17 08:03:38;;;;;;;1999.90;999.90;;;23.50;91.80;;;;;;5031736;28;20037;-82
2022/09/17 08:06:05;;;;;;;1999.90;999.90;;;23.60;92.10;;;;;;5032044;28;20025;-73
2022/09/17 08:08:32;;;;;;;1999.90;999.90;;;23.60;91.70;;;;;;5031620;28;20052;-73
2022/09/17 08:11:00;;;;;;;1999.90;999.90;;;23.50;91.20;;;;;;5031639;28;20033;-81
2022/09/17 08:13:26;;;;;;;1999.90;999.90;;;23.30;91.80;;;;;;5032611;28;20127;-73
2022/09/17 08:15:51;;;;;;;1999.90;999.90;;;23.40;91.50;;;;;;5040054;28;20029;-73
2022/09/17 08:18:17;;;;;;;1999.90;999.90;;;23.80;91.10;;;;;;5055180;28;20032;-73
2022/09/17 08:20:42;;;;;;;1999.90;999.90;;;25.10;90.50;;;;;;5054806;28;20017;-81
2022/09/17 08:23:08;;;;;;;1999.90;999.90;;;25.40;89.40;;;;;;5054445;28;20115;-80
2022/09/17 08:25:34;;;;;;;1999.90;999.90;;;23.70;90.50;;;;;;5055182;28;20204;-73
2022/09/17 08:27:59;;;;;;;1999.90;999.90;;;21.30;92.50;;;;;;5053540;28;20041;-75
2022/09/17 08:30:25;;;;;;;1999.90;999.90;;;20.70;93.70;;;;;;5055232;28;20045;-75
2022/09/17 08:32:53;;;;;;;1999.90;999.90;;;22.30;92.30;;;;;;5054636;28;20507;-83
2022/09/17 08:35:19;;;;;;;1999.90;999.90;;;23.70;90.80;;;;;;5053442;28;20041;-81
2022/09/17 08:37:46;;;;;;;1999.90;999.90;;;25.50;89.50;;;;;;5054328;28;20156;-81
2022/09/17 08:40:19;;;;;;;1999.90;999.90;;;26.30;88.00;;;;;;5054626;28;20123;-80
2022/09/17 08:42:57;;;;;;;1999.90;999.90;;;26.20;86.10;;;;;;5054637;28;20032;-81
2022/09/17 08:45:25;;;;;;;1999.90;999.90;;;26.40;86.40;;;;;;5054557;28;20020;-81
2022/09/17 08:48:01;;;;;;;1999.90;999.90;;;26.90;86.00;;;;;;5054288;28;20037;-81
2022/09/17 08:50:38;;;;;;;1999.90;999.90;;;26.60;85.40;;;;;;5053573;28;20510;-81
2022/09/17 08:53:29;;;;;;;1999.90;999.90;;;26.60;85.40;;;;;;5054189;28;20052;-74
2022/09/17 08:56:20;;;;;;;1999.90;999.90;;;27.20;84.90;;;;;;5054444;28;20035;-81
2022/09/17 08:59:10;;;;;;;1999.90;999.90;;;27.60;83.90;;;;;;5039870;28;20021;-74
2022/09/17 09:01:57;;;;;;;1999.90;999.90;;;28.50;82.60;;;;;;5034096;28;20083;-81
2022/09/17 09:04:31;;;;;;;1999.90;999.90;;;27.80;81.80;;;;;;5034683;28;20064;-73
2022/09/17 09:07:20;;;;;;;1999.90;999.90;;;28.00;81.70;;;;;;5034265;28;20036;-81
2022/09/17 09:10:12;;;;;;;1999.90;999.90;;;27.90;81.20;;;;;;5034345;28;20014;-81
2022/09/17 09:12:39;;;;;;;1999.90;999.90;;;28.20;81.60;;;;;;5036230;28;20049;-74
2022/09/17 09:15:06;;;;;;;1999.90;999.90;;;28.10;81.30;;;;;;5033293;28;20048;-80
2022/09/17 09:17:42;;;;;;;1999.90;999.90;;;27.60;81.00;;;;;;5052334;28;20488;-73
2022/09/17 09:20:16;;;;;;;1999.90;999.90;;;27.90;81.00;;;;;;5053805;28;20446;-73
2022/09/17 09:22:49;;;;;;;1999.90;999.90;;;27.90;81.10;;;;;;5053645;28;20021;-74
2022/09/17 09:25:28;;;;;;;1999.90;999.90;;;27.70;80.80;;;;;;5054493;28;20025;-80
2022/09/17 09:28:33;;;;;;;1999.90;999.90;;;26.60;81.80;;;;;;5057054;28;20037;-82
2022/09/17 09:31:20;;;;;;;1999.90;999.90;;;25.30;84.20;;;;;;5056053;28;20052;-82
2022/09/17 09:33:48;;;;;;;1999.90;999.90;;;23.70;86.90;;;;;;5056675;28;20037;-82
2022/09/17 09:36:20;;;;;;;1999.90;999.90;;;22.90;88.00;;;;;;5058069;28;20037;-81
2022/09/17 09:38:56;;;;;;;1999.90;999.90;;;22.40;89.40;;;;;;5056218;28;20013;-75
2022/09/17 09:41:31;;;;;;;1999.90;999.90;;;21.90;90.00;;;;;;5056404;28;20048;-81
2022/09/17 09:44:02;;;;;;;1999.90;999.90;;;21.90;90.30;;;;;;5056603;28;20017;-81
2022/09/17 09:46:49;;;;;;;1999.90;999.90;;;21.80;90.50;;;;;;5055578;28;20025;-75
2022/09/17 09:49:29;;;;;;;1999.90;999.90;;;21.60;90.50;;;;;;5056066;28;20029;-81
2022/09/17 09:52:31;;;;;;;1999.90;999.90;;;21.10;90.90;;;;;;5057140;28;20032;-81
2022/09/17 09:55:15;;;;;;;1999.90;999.90;;;21.00;90.90;;;;;;5031081;28;20044;-74
2022/09/17 09:57:51;;;;;;;1999.90;999.90;;;21.00;90.90;;;;;;5050215;28;20033;-75
2022/09/17 10:00:36;;;;;;;1999.90;999.90;;;21.20;90.70;;;;;;5034479;28;20025;-81
2022/09/17 10:03:31;;;;;;;1999.90;999.90;;;21.10;91.00;;;;;;5034871;28;20028;-81
2022/09/17 10:06:05;;;;;;;1999.90;999.90;;;21.20;91.00;;;;;;5037309;28;20025;-81
2022/09/17 10:08:38;;;;;;;1999.90;999.90;;;21.50;90.90;;;;;;5035034;28;20025;-75
2022/09/17 10:11:10;;;;;;;1999.90;999.90;;;21.50;90.90;;;;;;5033696;28;20060;-80
2022/09/17 10:13:36;;;;;;;1999.90;999.90;;;21.30;90.90;;;;;;5035491;28;20021;-75
2022/09/17 10:16:26;;;;;;;1999.90;999.90;;;21.00;90.60;;;;;;5086043;28;20036;-81
2022/09/17 10:19:07;;;;;;;1999.90;999.90;;;20.40;90.90;;;;;;5076448;28;20036;-79
2022/09/17 10:21:39;;;;;;;1999.90;999.90;;;20.70;91.40;;;;;;5061184;28;20443;-75
2022/09/17 10:24:28;;;;;;;1999.90;999.90;;;20.80;90.70;;;;;;5061313;28;20028;-80
2022/09/17 10:27:16;;;;;;;1999.90;999.90;;;20.90;90.40;;;;;;5065269;28;20039;-80
2022/09/17 10:29:44;;;;;;;1999.90;999.90;;;21.00;90.60;;;;;;5061613;28;20049;-80
2022/09/17 10:32:19;;;;;;;1999.90;999.90;;;21.00;90.40;;;;;;5057019;28;20025;-80
2022/09/17 10:35:13;;;;;;;1999.90;999.90;;;20.60;90.50;;;;;;5056490;28;20021;-77
2022/09/17 10:37:47;;;;;;;1999.90;999.90;;;20.40;90.60;;;;;;5034180;28;20053;-80
2022/09/17 10:40:24;;;;;;;1999.90;999.90;;;20.40;90.80;;;;;;5057886;28;20021;-74
2022/09/17 10:43:15;;;;;;;1999.90;999.90;;;20.50;90.50;;;;;;5053552;28;20029;-75
2022/09/17 10:45:44;;;;;;;1999.90;999.90;;;20.50;90.80;;;;;;5058380;28;20461;-81
2022/09/17 10:48:17;;;;;;;1999.90;999.90;;;20.60;90.30;;;;;;5056911;28;20082;-80
2022/09/17 10:50:50;;;;;;;;;;;20.60;90.40;;;;;;5054945;28;20024;-81
2022/09/17 10:53:17;;;;;;;1999.90;999.90;;;20.80;89.10;;;;;;5057343;28;20280;-75
2022/09/17 10:55:42;;;;;;;1999.90;999.90;;;20.40;89.80;;;;;;5057338;28;20033;-80
2022/09/17 10:58:17;;;;;;;1999.90;999.90;;;20.30;89.50;;;;;;5058272;28;20088;-80
2022/09/17 11:00:46;;;;;;;1999.90;999.90;;;20.20;89.80;;;;;;5056629;28;20029;-81
2022/09/17 11:03:21;;;;;;;1999.90;999.90;;;20.40;89.50;;;;;;5058640;28;20081;-80
2022/09/17 11:06:15;;;;;;;1999.90;999.90;;;20.40;89.80;;;;;;5060931;28;20056;-81
2022/09/17 11:08:56;;;;;;;1999.90;999.90;;;20.60;88.70;;;;;;5061224;28;20476;-75
2022/09/17 11:11:54;;;;;;;1999.90;999.90;;;20.20;88.50;;;;;;5061121;28;20021;-80
2022/09/17 11:14:32;;;;;;;1999.90;999.90;;;20.40;89.00;;;;;;5056907;28;20025;-81
2022/09/17 11:17:27;;;;;;;1999.90;999.90;;;20.20;89.70;;;;;;5054372;28;20503;-82
2022/09/17 11:20:17;;;;;;;1999.90;999.90;;;20.30;90.20;;;;;;5054499;28;20369;-81
2022/09/17 11:23:21;;;;;;;1999.90;999.90;;;20.30;89.80;;;;;;5057510;28;20021;-81
2022/09/17 11:26:05;;;;;;;1999.90;999.90;;;20.60;89.80;;;;;;5057833;28;20055;-75
2022/09/17 11:28:51;;;;;;;1999.90;999.90;;;20.90;88.50;;;;;;5054786;28;20523;-81
2022/09/17 11:31:37;;;;;;;1999.90;999.90;;;20.90;88.70;;;;;;5054054;28;20492;-80
2022/09/17 11:34:12;;;;;;;1999.90;999.90;;;20.80;88.30;;;;;;5054590;28;20032;-81
2022/09/17 11:37:04;;;;;;;1999.90;999.90;;;20.70;86.60;;;;;;5037365;28;20057;-81
2022/09/17 11:39:46;;;;;;;1999.90;999.90;;;20.80;87.90;;;;;;5046205;28;20518;-81
2022/09/17 11:42:25;;;;;;;1999.90;999.90;;;21.00;89.00;;;;;;5053160;28;20044;-75
2022/09/17 11:44:56;;;;;;;1999.90;999.90;;;20.80;88.00;;;;;;5056703;28;20047;-81
2022/09/17 11:47:36;;;;;;;1999.90;999.90;;;20.90;88.20;;;;;;5056390;28;20021;-81
2022/09/17 11:50:27;;;;;;;1999.90;999.90;;;20.90;85.70;;;;;;5061016;28;20041;-81
2022/09/17 11:53:03;;;;;;;1999.90;999.90;;;21.00;87.50;;;;;;5053220;28;20055;-76
2022/09/17 11:55:38;;;;;;;1999.90;999.90;;;21.00;88.60;;;;;;5057138;28;20248;-81
2022/09/17 11:58:41;;;;;;;1999.90;999.90;;;21.20;86.30;;;;;;5061924;28;20028;-81
2022/09/17 12:01:17;;;;;;;1999.90;999.90;;;21.20;87.20;;;;;;5058396;28;20040;-81
2022/09/17 12:03:52;;;;;;;1999.90;999.90;;;21.10;87.70;;;;;;5060955;28;20025;-81
2022/09/17 12:06:24;;;;;;;1999.90;999.90;;;21.30;88.10;;;;;;5055488;28;20402;-81
2022/09/17 12:08:59;;;;;;;;;;;21.30;86.50;;;;;;5060619;28;20025;-81
2022/09/17 12:11:46;;;;;;;1999.90;999.90;;;21.10;86.60;;;;;;5059398;28;19915;-81
2022/09/17 12:15:02;;;;;;;1999.90;999.90;;;21.10;86.80;;;;;;5058946;28;20037;-81
2022/09/17 12:17:42;;;;;;;1999.90;999.90;;;21.30;86.30;;;;;;5015768;28;20025;-81
2022/09/17 12:20:23;;;;;;;1999.90;999.90;;;21.50;85.80;;;;;;5017725;28;20034;-82
2022/09/17 12:22:50;;;;;;;1999.90;999.90;;;21.60;86.00;;;;;;5021960;28;20025;-81
2022/09/17 12:25:16;;;;;;;1999.90;999.90;;;21.40;85.70;;;;;;5016428;28;20042;-81
2022/09/17 12:27:44;;;;;;;1999.90;999.90;;;21.40;86.40;;;;;;5017313;28;20192;-81